Montrose, CO

7:14 PM MST on December 03, 2016 (GMT -0700)
Montrose Regional | | Change Station

Elev 5758 ft 38.51 °N, 107.90 °W | Updated 21 minutes ago

Clear
Clear
26 °F
Feels Like 18 °F
N
8
Wind Variable Wind from SSE

Today
High -- | Low -- °F
--% Chance of Precip.
Yesterday
High -- | Low -- °F
Precip. -- in
Pressure 30.22 in
Visibility 10.0 miles
Clouds Clear
Windchill 18 °F
Dew Point 17 °F
Humidity 69%
Rainfall 0.00 in
Snow Depth Not available.
7:12 AM 4:50 PM
Waxing Crescent, 19% visible
METAR KMTJ 040153Z AUTO 16007KT 10SM CLR M03/M08 A3017 RMK AO2 SLP233 T10331083
Pressure 30.22 in
Visibility 10.0 miles
Clouds Clear
Windchill 18 °F
Dew Point 17 °F
Humidity 69%
Rainfall 0.00 in
Snow Depth Not available.
7:12 AM 4:50 PM
Waxing Crescent, 19% visible
METAR KMTJ 040153Z AUTO 16007KT 10SM CLR M03/M08 A3017 RMK AO2 SLP233 T10331083

10-Day Weather Forecast

Almanac

Astronomy

Dec. 03, 2016 Rise Set
Actual Time
Civil Twilight
Nautical Twilight
Astronomical Twilight
Moon
Length of Visible Light
Length of Day
Tomorrow will be .
, % of the Moon is Illuminated

Today's Extremes

State Highs State Lows

Community

WunderPhotos

Upload Photos

1,955,562 photos uploaded!

WunderBlog® & News

Nearby

Air Quality

  Air Quality AQ Index Pollutant
Not available.

Snow Depth

Station Depth Elevation

Earthquake Activity

City Distance Mag. Time & Date
Minimum magnitude displayed is 2.5.

Coastal Water Temperatures

Place Temperature

Stations

Nearby Weather Stations

Station Location Temp. Windchill Dew Point Humidity Wind Precip. Elev Updated Type
                   

Watches & Warnings

There are currently no watches in effect.